Time;durP1;ratioP1;P1;durP2;ratioP2;P2;SDS_P1;SDS_P2;PMS_P1;PMS_P2;Temp;Humidity;BMP_temperature;BMP_pressure;BME280_temperature;BME280_humidity;BME280_pressure;Samples;Min_cycle;Max_cycle;Signal;HPM_P1;HPM_P2
2022/02/10 01:30:58;;;;;;;2.55;2.08;;;7.60;99.90;;;;;;7411860;19;20353;-79
2022/02/10 01:33:25;;;;;;;2.42;2.22;;;7.60;99.90;;;;;;7393008;19;20875;-78
2022/02/10 01:35:50;;;;;;;2.00;1.90;;;7.70;99.90;;;;;;7397150;19;20313;-79
2022/02/10 01:38:16;;;;;;;1.90;1.80;;;7.70;99.90;;;;;;7400424;19;20354;-79
2022/02/10 02:05:00;;;;;;;1.98;1.88;;;7.60;99.90;;;;;;7294261;19;2008053;-81
2022/02/10 02:07:29;;;;;;;2.38;2.17;;;7.50;99.90;;;;;;7401303;19;20320;-79
2022/02/10 02:09:57;;;;;;;1.95;1.85;;;7.70;99.90;;;;;;7397460;19;20349;-79
2022/02/10 02:12:24;;;;;;;1.90;1.80;;;7.60;99.90;;;;;;7397660;19;20321;-80
2022/02/10 02:14:50;;;;;;;2.13;1.92;;;7.60;99.90;;;;;;7400748;19;20301;-79
2022/02/10 02:17:20;;;;;;;1.90;1.80;;;7.60;99.90;;;;;;7397016;19;20875;-80
2022/02/10 02:20:11;;;;;;;5.55;2.15;;;7.60;99.90;;;;;;7374464;19;20308;-80
2022/02/10 02:22:40;;;;;;;1.98;1.88;;;7.60;99.90;;;;;;7406399;19;20316;-80
2022/02/10 02:25:08;;;;;;;2.40;2.20;;;7.70;99.90;;;;;;7353553;19;20365;-81
2022/02/10 02:28:12;;;;;;;3.15;2.05;;;7.70;99.90;;;;;;7400607;19;20333;-80
2022/02/10 02:30:46;;;;;;;1.80;1.70;;;7.70;99.90;;;;;;7296489;19;2004998;-79
2022/02/10 02:33:46;;;;;;;3.50;2.33;;;7.70;99.90;;;;;;7287578;19;2004787;-80
2022/02/10 02:36:43;;;;;;;2.35;2.13;;;7.60;99.90;;;;;;7274222;19;2004431;-80
2022/02/10 03:06:44;;;;;;;2.40;2.20;;;7.70;99.90;;;;;;7391543;19;20308;-80
2022/02/10 03:09:15;;;;;;;2.00;1.80;;;7.60;99.90;;;;;;7393467;19;20316;-79
2022/02/10 03:11:42;;;;;;;2.00;1.90;;;7.60;99.90;;;;;;7397028;19;20323;-80
2022/02/10 03:14:23;;;;;;;2.20;2.00;;;7.60;99.90;;;;;;7377366;19;20411;-79
2022/02/10 04:26:04;;;;;;;2.25;2.08;;;7.60;99.90;;;;;;7384752;19;20684;-80
2022/02/10 04:31:22;;;;;;;2.55;1.95;;;7.40;99.90;;;;;;7373853;19;20338;-79
2022/02/10 05:19:15;;;;;;;2.35;1.63;;;7.50;99.90;;;;;;7397063;19;20328;-80
2022/02/10 05:33:26;;;;;;;2.00;1.90;;;7.50;99.90;;;;;;7382387;19;20396;-79
2022/02/10 05:36:03;;;;;;;2.45;2.25;;;7.50;99.90;;;;;;7296576;19;2004411;-80
2022/02/10 05:38:36;;;;;;;1.65;1.55;;;7.50;99.90;;;;;;7395272;19;20847;-79
2022/02/10 06:51:59;;;;;;;2.55;2.30;;;7.40;99.90;;;;;;7388034;19;20407;-77
2022/02/10 06:57:46;;;;;;;2.83;1.90;;;7.20;99.90;;;;;;7388303;19;20336;-79
2022/02/10 07:03:24;;;;;;;3.10;2.00;;;7.30;99.90;;;;;;7284599;19;2004400;-78
2022/02/10 07:06:09;;;;;;;1.75;1.65;;;7.40;99.90;;;;;;7286123;19;2010155;-79
2022/02/10 07:58:15;;;;;;;2.15;1.95;;;7.30;99.90;;;;;;7393708;19;20313;-79
2022/02/10 08:49:43;;;;;;;2.45;2.25;;;7.80;99.90;;;;;;7281419;19;2007459;-79
2022/02/10 08:51:50;;;;;;;2.28;2.10;;;8.50;99.90;;;;;;7395695;19;20687;-81
2022/02/10 08:56:48;;;;;;;1.92;1.73;;;8.70;99.90;;;;;;7399043;19;20312;-82
2022/02/10 08:59:44;;;;;;;1.75;1.65;;;9.00;99.90;;;;;;7298862;19;2008406;-81
2022/02/10 09:05:19;;;;;;;1.77;1.67;;;9.30;99.90;;;;;;7296357;19;2008255;-79
2022/02/10 09:08:15;;;;;;;2.03;1.90;;;9.40;99.90;;;;;;7396226;19;20357;-85
2022/02/10 09:19:21;;;;;;;1.95;1.75;;;9.70;99.90;;;;;;7405580;19;20324;-83
2022/02/10 09:25:20;;;;;;;2.25;2.00;;;9.80;99.90;;;;;;7409565;19;20824;-85
2022/02/10 09:47:24;;;;;;;1.90;1.58;;;9.80;99.90;;;;;;7307477;19;2004398;-82
2022/02/10 09:56:35;;;;;;;1.50;1.40;;;10.10;99.90;;;;;;7301946;19;2008656;-80
2022/02/10 10:02:05;;;;;;;1.67;1.58;;;10.30;99.90;;;;;;7302045;19;2004417;-85
2022/02/10 10:04:42;;;;;;;2.50;1.75;;;10.30;99.90;;;;;;7400166;19;20344;-81
2022/02/10 10:07:21;;;;;;;1.83;1.40;;;10.40;99.90;;;;;;7402108;19;20369;-85
2022/02/10 10:10:29;;;;;;;3.50;1.63;;;10.50;99.90;;;;;;7405651;19;20300;-83
2022/02/10 10:15:41;;;;;;;2.03;1.60;;;10.50;99.90;;;;;;7404355;19;20308;-83
2022/02/10 10:21:07;;;;;;;1.58;1.48;;;10.50;99.90;;;;;;7412467;19;20308;-90
2022/02/10 10:54:19;;;;;;;2.13;1.50;;;11.30;99.90;;;;;;7413766;19;20336;-82
2022/02/10 10:56:48;;;;;;;3.57;1.83;;;11.40;99.90;;;;;;7310418;19;2006374;-84
2022/02/10 11:06:17;;;;;;;1.70;1.60;;;11.50;99.90;;;;;;7311743;19;2004553;-86
2022/02/10 11:22:14;;;;;;;1.65;1.55;;;11.50;99.90;;;;;;7310175;19;2010408;-89
2022/02/10 11:42:08;;;;;;;2.10;1.90;;;12.50;99.90;;;;;;7313446;19;2005235;-83
2022/02/10 12:39:21;;;;;;;2.60;2.40;;;11.90;99.90;;;;;;7409303;19;20343;-82
2022/02/10 13:02:36;;;;;;;2.83;2.47;;;11.60;99.90;;;;;;7309977;19;2004465;-86
2022/02/10 13:29:00;;;;;;;5.07;4.30;;;11.30;99.90;;;;;;7408703;19;20345;-83
2022/02/10 14:13:08;;;;;;;3.97;2.80;;;10.50;99.90;;;;;;7407761;19;20336;-83
2022/02/10 14:28:18;;;;;;;3.67;3.10;;;10.90;99.90;;;;;;7405570;19;20364;-83
2022/02/10 14:30:44;;;;;;;4.40;3.60;;;11.10;99.90;;;;;;7405534;19;20346;-81
2022/02/10 14:33:10;;;;;;;7.25;5.20;;;10.70;99.90;;;;;;7406134;19;20333;-87
2022/02/10 14:35:53;;;;;;;4.63;2.90;;;10.70;99.90;;;;;;7407276;19;20316;-87
2022/02/10 14:38:36;;;;;;;4.47;3.92;;;10.70;99.90;;;;;;7307840;19;2005540;-86
2022/02/10 14:41:29;;;;;;;3.47;3.10;;;10.50;99.90;;;;;;7306760;19;2004254;-81
2022/02/10 16:56:18;;;;;;;4.80;3.88;;;8.10;99.90;;;;;;7346769;19;20353;-80
2022/02/10 16:59:01;;;;;;;3.13;2.83;;;8.10;99.90;;;;;;7382521;19;20308;-80
2022/02/10 17:29:36;;;;;;;0.90;0.90;;;6.50;99.90;;;;;;7420292;19;20385;-80
2022/02/10 17:35:34;;;;;;;0.80;0.80;;;6.30;99.90;;;;;;7323267;19;20345;-81
2022/02/10 17:46:56;;;;;;;0.70;0.70;;;5.70;99.90;;;;;;7416147;19;20332;-81
2022/02/10 17:52:23;;;;;;;0.70;0.70;;;5.70;99.90;;;;;;7390150;19;20321;-80
2022/02/10 17:55:36;;;;;;;0.75;0.75;;;5.60;99.90;;;;;;7394955;19;20324;-81
2022/02/10 17:58:30;;;;;;;0.60;0.60;;;5.50;99.90;;;;;;7373534;19;20325;-81
2022/02/10 18:01:03;;;;;;;0.60;0.60;;;5.60;99.90;;;;;;7314065;19;2004245;-80
2022/02/10 18:03:32;;;;;;;1.30;0.77;;;5.70;99.90;;;;;;7320000;19;20324;-79
2022/02/10 18:10:03;;;;;;;1.43;1.33;;;5.80;99.90;;;;;;7396522;19;20332;-81
2022/02/10 18:13:32;;;;;;;1.70;1.60;;;5.80;99.90;;;;;;7321518;19;2004280;-80
2022/02/10 18:16:20;;;;;;;1.13;1.02;;;5.80;99.90;;;;;;7403738;19;20317;-81
2022/02/10 18:19:11;;;;;;;1.50;1.40;;;5.90;99.90;;;;;;7282515;19;2007354;-80
2022/02/10 18:24:40;;;;;;;2.88;2.13;;;5.90;99.90;;;;;;7386108;19;20676;-80
2022/02/10 18:27:16;;;;;;;3.63;2.53;;;5.70;99.90;;;;;;7296168;19;2004717;-79
2022/02/10 18:54:33;;;;;;;0.80;0.80;;;5.60;99.90;;;;;;7364417;19;20806;-79
2022/02/10 19:09:49;;;;;;;1.83;1.50;;;5.40;99.90;;;;;;7379433;19;20328;-78
2022/02/10 19:12:18;;;;;;;1.30;1.20;;;5.40;99.90;;;;;;7383895;19;20317;-79
2022/02/10 19:14:52;;;;;;;1.40;1.10;;;5.40;99.90;;;;;;7383837;19;20332;-78
2022/02/10 19:17:20;;;;;;;1.05;1.05;;;5.40;99.90;;;;;;7384369;19;20368;-78
2022/02/10 19:19:46;;;;;;;1.10;1.10;;;5.40;99.90;;;;;;7382399;19;20328;-78
2022/02/10 19:22:11;;;;;;;0.93;0.93;;;5.40;99.90;;;;;;7382175;19;20884;-79
2022/02/10 19:24:37;;;;;;;1.33;1.23;;;5.30;99.90;;;;;;7385026;19;20336;-78
2022/02/10 19:27:03;;;;;;;0.93;0.93;;;5.30;99.90;;;;;;7390254;19;20348;-78
2022/02/10 19:29:29;;;;;;;3.28;2.97;;;5.30;99.90;;;;;;7383162;19;20702;-79
2022/02/10 19:31:55;;;;;;;2.07;1.90;;;5.30;99.90;;;;;;7381111;19;20645;-79
2022/02/10 19:34:20;;;;;;;1.73;1.50;;;5.30;99.90;;;;;;7383784;19;20908;-78
2022/02/10 19:36:46;;;;;;;1.60;1.50;;;5.30;99.90;;;;;;7390549;19;20309;-80
2022/02/10 19:39:20;;;;;;;1.57;1.47;;;5.30;99.90;;;;;;7366308;19;20400;-79
2022/02/10 19:41:52;;;;;;;1.50;1.40;;;5.40;99.90;;;;;;7370647;19;20324;-80
2022/02/10 19:44:21;;;;;;;1.60;1.50;;;5.30;99.90;;;;;;7289697;19;2004280;-79
2022/02/10 19:46:51;;;;;;;3.13;1.73;;;5.20;99.90;;;;;;7384136;19;20795;-79
2022/02/10 19:49:20;;;;;;;1.60;1.50;;;5.30;99.90;;;;;;7384118;19;20345;-80
2022/02/10 19:51:47;;;;;;;1.77;1.67;;;5.40;99.90;;;;;;7381084;19;20324;-80
2022/02/10 19:54:15;;;;;;;2.42;2.22;;;5.30;99.90;;;;;;7385177;19;20332;-80
2022/02/10 19:56:41;;;;;;;1.90;1.80;;;5.30;99.90;;;;;;7382058;19;20329;-79
2022/02/10 19:59:13;;;;;;;3.08;1.90;;;5.20;99.90;;;;;;7384441;19;20862;-80
2022/02/10 20:01:39;;;;;;;1.92;1.83;;;5.30;99.90;;;;;;7382634;19;20449;-79
2022/02/10 20:04:09;;;;;;;1.73;1.63;;;5.20;99.90;;;;;;7384079;19;20336;-79
2022/02/10 20:06:35;;;;;;;1.50;1.40;;;5.20;99.90;;;;;;7383808;19;20333;-79
2022/02/10 20:09:01;;;;;;;1.80;1.70;;;5.30;99.90;;;;;;7351104;19;20385;-80
2022/02/10 20:11:31;;;;;;;3.13;2.78;;;5.10;99.90;;;;;;7364407;19;20403;-80
2022/02/10 20:13:57;;;;;;;2.10;1.80;;;5.20;99.90;;;;;;7386770;19;20315;-80
2022/02/10 20:16:23;;;;;;;1.63;1.52;;;5.10;99.90;;;;;;7390904;19;20320;-79
2022/02/10 20:18:49;;;;;;;1.48;1.38;;;5.20;99.90;;;;;;7381477;19;20337;-79
2022/02/10 20:21:16;;;;;;;1.67;1.58;;;5.30;99.90;;;;;;7378816;19;20351;-78
2022/02/10 20:23:42;;;;;;;2.13;1.33;;;5.20;99.90;;;;;;7380812;19;20324;-79
2022/02/10 20:26:08;;;;;;;2.00;1.52;;;5.20;99.90;;;;;;7379827;19;20507;-78
2022/02/10 20:28:34;;;;;;;1.50;1.40;;;5.20;99.90;;;;;;7359388;19;20408;-79
2022/02/10 20:31:00;;;;;;;1.50;1.40;;;5.30;99.90;;;;;;7380629;19;20855;-78
2022/02/10 20:33:28;;;;;;;2.30;1.40;;;5.30;99.90;;;;;;7377595;19;21348;-79
2022/02/10 20:35:57;;;;;;;1.50;1.40;;;5.30;99.90;;;;;;7384132;19;20324;-79
2022/02/10 20:38:23;;;;;;;2.40;2.17;;;5.30;99.90;;;;;;7388192;19;20328;-78
2022/02/10 20:40:56;;;;;;;4.40;3.75;;;5.30;99.90;;;;;;7380474;19;20356;-79
2022/02/10 20:43:23;;;;;;;10.35;5.88;;;5.20;99.90;;;;;;7384111;19;20437;-78
2022/02/10 20:45:55;;;;;;;12.45;8.75;;;5.30;99.90;;;;;;7384945;19;20728;-79
2022/02/10 20:48:22;;;;;;;3.92;3.50;;;5.30;99.90;;;;;;7284379;19;2007848;-79
2022/02/10 20:50:53;;;;;;;4.00;3.60;;;5.40;99.90;;;;;;7380859;19;20770;-79
2022/02/10 20:53:20;;;;;;;4.50;4.10;;;5.20;99.90;;;;;;7382049;19;20360;-79
2022/02/10 20:55:46;;;;;;;2.27;1.97;;;5.30;99.90;;;;;;7384003;19;20337;-78
2022/02/10 20:58:12;;;;;;;2.33;2.13;;;5.30;99.90;;;;;;7382906;19;20403;-78
2022/02/10 21:00:37;;;;;;;2.70;2.50;;;5.40;99.90;;;;;;7378791;19;20650;-80
2022/02/10 21:03:05;;;;;;;2.47;1.97;;;5.20;99.90;;;;;;7378664;19;20352;-78
2022/02/10 21:05:37;;;;;;;2.08;1.88;;;5.30;99.90;;;;;;7381147;19;20352;-78
2022/02/10 21:08:43;;;;;;;1.60;1.50;;;5.30;99.90;;;;;;7388016;19;20332;-79
2022/02/10 21:10:55;;;;;;;1.75;1.63;;;5.30;99.90;;;;;;7282428;19;2004520;-79
2022/02/10 21:13:22;;;;;;;1.73;1.60;;;5.30;99.90;;;;;;7386799;19;20353;-80
2022/02/10 21:15:48;;;;;;;1.90;1.50;;;5.30;99.90;;;;;;7386616;19;20332;-81
2022/02/10 21:18:15;;;;;;;3.53;1.43;;;5.40;99.90;;;;;;7388714;19;20408;-80
2022/02/10 21:20:57;;;;;;;1.92;1.63;;;5.40;99.90;;;;;;7385031;19;20729;-79
2022/02/10 21:25:56;;;;;;;1.65;1.55;;;5.30;99.90;;;;;;7363305;19;20863;-81
2022/02/10 21:28:30;;;;;;;2.17;1.67;;;5.30;99.90;;;;;;7368740;19;20392;-79
2022/02/10 21:30:59;;;;;;;1.95;1.83;;;5.30;99.90;;;;;;7384969;19;20769;-81
2022/02/10 21:33:42;;;;;;;2.88;2.40;;;5.30;99.90;;;;;;7367740;19;20349;-80
2022/02/10 21:39:03;;;;;;;2.38;2.17;;;5.30;99.90;;;;;;7279970;19;2010162;-79
2022/02/10 21:42:40;;;;;;;1.90;1.80;;;5.30;99.90;;;;;;7383331;19;20312;-76
2022/02/10 21:45:34;;;;;;;1.75;1.65;;;5.30;99.90;;;;;;7186259;19;2008820;-80
2022/02/10 21:47:52;;;;;;;1.80;1.70;;;5.30;99.90;;;;;;7284149;19;2006964;-80
2022/02/10 22:06:31;;;;;;;2.55;2.30;;;5.30;99.90;;;;;;7284148;19;2008614;-78
2022/02/10 22:11:35;;;;;;;2.58;2.38;;;5.30;99.90;;;;;;7380874;19;20345;-78
2022/02/10 22:19:26;;;;;;;2.80;2.38;;;5.30;99.90;;;;;;7236454;19;2008948;-78
2022/02/10 22:21:53;;;;;;;2.83;2.53;;;5.30;99.90;;;;;;7375829;19;20336;-78
2022/02/10 22:24:21;;;;;;;2.17;2.08;;;5.30;99.90;;;;;;7382274;19;20333;-78
2022/02/10 22:26:48;;;;;;;2.17;2.03;;;5.30;99.90;;;;;;7378834;19;20344;-78
2022/02/10 22:29:20;;;;;;;3.35;2.30;;;5.20;99.90;;;;;;7379693;19;20341;-78
2022/02/10 22:36:45;;;;;;;3.20;2.28;;;5.40;99.90;;;;;;7380213;19;20331;-78
2022/02/10 22:39:12;;;;;;;3.20;2.75;;;5.30;99.90;;;;;;7359880;19;20316;-78
2022/02/10 22:41:38;;;;;;;2.70;2.50;;;5.20;99.90;;;;;;7379511;19;20379;-78
2022/02/10 22:44:05;;;;;;;2.85;2.50;;;5.30;99.90;;;;;;7381948;19;20336;-78
2022/02/10 22:46:30;;;;;;;3.30;2.78;;;5.30;99.90;;;;;;7382541;19;20848;-78
2022/02/10 22:48:57;;;;;;;3.40;3.10;;;5.20;99.90;;;;;;7384997;19;20348;-78
2022/02/10 22:51:25;;;;;;;2.95;2.65;;;5.30;99.90;;;;;;7386712;19;20440;-78
2022/02/10 22:53:52;;;;;;;2.58;2.38;;;5.30;99.90;;;;;;7358269;19;20346;-78
2022/02/10 22:56:19;;;;;;;3.10;2.70;;;5.30;99.90;;;;;;7380893;19;20335;-78
2022/02/10 22:58:52;;;;;;;2.50;2.30;;;5.20;99.90;;;;;;7374935;19;20336;-78
2022/02/10 23:01:21;;;;;;;2.80;2.58;;;5.20;99.90;;;;;;7376581;19;20376;-79
2022/02/10 23:03:50;;;;;;;2.95;2.63;;;5.20;99.90;;;;;;7355655;19;20336;-78
2022/02/10 23:06:16;;;;;;;3.97;2.27;;;5.20;99.90;;;;;;7374751;19;20356;-78
2022/02/10 23:08:42;;;;;;;2.72;2.53;;;5.20;99.90;;;;;;7377951;19;20364;-78
2022/02/10 23:11:11;;;;;;;3.03;2.72;;;5.30;99.90;;;;;;7379017;19;20697;-78
2022/02/10 23:13:38;;;;;;;2.80;2.53;;;5.20;99.90;;;;;;7376686;19;21127;-78
2022/02/10 23:16:06;;;;;;;2.92;2.50;;;5.20;99.90;;;;;;7357883;19;20340;-78
2022/02/10 23:18:33;;;;;;;4.35;2.22;;;5.30;99.90;;;;;;7383880;19;20335;-77
2022/02/10 23:21:01;;;;;;;2.83;2.55;;;5.20;99.90;;;;;;7383912;19;20344;-77
2022/02/10 23:23:28;;;;;;;2.53;2.33;;;5.20;99.90;;;;;;7376986;19;20867;-77
2022/02/10 23:25:55;;;;;;;2.70;2.50;;;5.20;99.90;;;;;;7388551;19;20356;-77
2022/02/10 23:28:25;;;;;;;2.55;2.35;;;5.20;99.90;;;;;;7386022;19;20460;-78
2022/02/10 23:30:52;;;;;;;3.07;2.30;;;5.30;99.90;;;;;;7364776;19;20357;-77
2022/02/10 23:33:27;;;;;;;3.22;2.72;;;5.20;99.90;;;;;;7361589;19;20332;-78
2022/02/10 23:38:40;;;;;;;2.58;2.38;;;5.20;99.90;;;;;;7254498;19;2004420;-79
2022/02/10 23:43:54;;;;;;;5.37;2.87;;;5.20;99.90;;;;;;7263220;19;2004412;-78
2022/02/10 23:46:21;;;;;;;2.83;2.60;;;5.20;99.90;;;;;;7390440;19;20844;-77
2022/02/10 23:48:52;;;;;;;3.15;2.85;;;5.20;99.90;;;;;;7365204;19;20943;-77
2022/02/10 23:51:27;;;;;;;3.72;3.00;;;5.30;99.90;;;;;;7359863;19;20325;-78
2022/02/10 23:53:56;;;;;;;2.67;2.47;;;5.20;99.90;;;;;;7382356;19;20321;-77
2022/02/10 23:56:26;;;;;;;2.97;2.77;;;5.30;99.90;;;;;;7387974;19;20785;-78
2022/02/10 23:58:59;;;;;;;2.90;2.40;;;5.20;99.90;;;;;;7383804;19;20356;-77
